»·PEaware :: SWA1748 KLAS-KLAX

SWA1748 :: KLAS-KLAX

FLIGHT INFORMATION

Flight Status: Arrived
Operator:
Southwest Airlines
More flights by this operator :: More flights under this callsign
Pilot: Zach J. (11240)
Aircraft: BOEING 737-800
(B738)
More flights by this aircraft type
Origin: KLAS McCarran Intl
United States
Destination: KLAX Los Angeles Intl
United States
More flights between these airports :: More routes between these airports
Route: BOACH8 RIKII SHTNR ANJLL2
File this flight plan on PilotEdge
Remarks: SEL / KSAB
Altitude:
(Current/Filed)
28,000ft
Speed:
(Current/Filed)
524kts
Departed: 10-May-18 08:12 PM
Arrived: 10-May-18 08:59 PM
Distance/Time
Traveled:
205nm/0:47
Distance/Time
To Go:
Arrived

Flight Plot

Page will automatically refresh every two minutes.

Flight plan parsing failed; only flown route is shown


Map Options




Map Legend


Flown Route
Filed Route
Departure Airport
Arrival Airport
Navaid (VOR, NDB)
Fix

Horizontal Profiles

Position Reports

Time Latitude Longitude Heading Altitude Ground
Speed
10-May-18 19:48 36.079805 -115.145829 334 2189ft 0kts
10-May-18 19:49 36.079805 -115.145829 334 2189ft 0kts
10-May-18 19:50 36.079805 -115.145829 334 2189ft 0kts
10-May-18 19:51 36.079805 -115.145829 334 2189ft 0kts
10-May-18 19:52 36.079805 -115.145829 334 2189ft 0kts
10-May-18 19:53 36.079805 -115.145829 334 2189ft 0kts
10-May-18 19:54 36.079805 -115.145829 334 2189ft 0kts
10-May-18 19:55 36.079792 -115.145822 334 2189ft 1kts
10-May-18 19:56 36.079479 -115.145641 334 2189ft 0kts
10-May-18 19:57 36.079479 -115.145641 334 2189ft 0kts
10-May-18 19:58 36.079479 -115.145641 334 2189ft 0kts
10-May-18 19:59 36.079479 -115.145641 334 2189ft 0kts
10-May-18 20:00 36.079479 -115.145641 334 2189ft 0kts
10-May-18 20:01 36.079480 -115.145642 334 2189ft 0kts
10-May-18 20:02 36.079480 -115.145642 334 2189ft 0kts
10-May-18 20:03 36.078993 -115.144830 172 2189ft 11kts
10-May-18 20:04 36.077817 -115.144423 135 2189ft 9kts
10-May-18 20:05 36.077514 -115.140011 87 2189ft 13kts
10-May-18 20:06 36.077593 -115.136615 84 2189ft 12kts
10-May-18 20:07 36.077571 -115.131042 91 2189ft 17kts
10-May-18 20:08 36.077593 -115.126413 87 2189ft 12kts
10-May-18 20:09 36.077607 -115.122268 89 2189ft 15kts
10-May-18 20:10 36.077433 -115.121412 143 2189ft 0kts
10-May-18 20:11 36.077427 -115.121407 143 2189ft 1kts
10-May-18 20:12 36.076324 -115.133682 271 2189ft 128kts
10-May-18 20:13 36.077890 -115.194867 271 4628ft 187kts
10-May-18 20:14 36.065626 -115.258022 213 7044ft 229kts
10-May-18 20:15 35.996660 -115.289937 201 9440ft 273kts
10-May-18 20:16 35.920188 -115.308015 187 12682ft 289kts
10-May-18 20:17 35.838091 -115.313406 178 16045ft 305kts
10-May-18 20:18 35.751168 -115.303045 178 19141ft 321kts
10-May-18 20:19 35.660114 -115.294525 184 21934ft 334kts
10-May-18 20:20 35.565351 -115.299031 186 24475ft 349kts
10-May-18 20:21 35.472050 -115.326634 213 26783ft 348kts
10-May-18 20:22 35.386525 -115.388257 215 27727ft 367kts
10-May-18 20:23 35.298806 -115.452048 215 27726ft 365kts
10-May-18 20:24 35.211412 -115.515234 214 27742ft 365kts
10-May-18 20:25 35.125613 -115.580589 223 27757ft 360kts
10-May-18 20:26 35.055234 -115.666803 229 27774ft 357kts
10-May-18 20:27 34.986716 -115.754486 229 27783ft 357kts
10-May-18 20:28 34.917951 -115.842230 229 27792ft 357kts
10-May-18 20:29 34.849650 -115.929567 229 27801ft 355kts
10-May-18 20:30 34.781409 -116.016616 229 27810ft 358kts
10-May-18 20:31 34.712341 -116.104358 229 27813ft 358kts
10-May-18 20:32 34.643233 -116.191890 229 27834ft 358kts
10-May-18 20:33 34.574097 -116.279520 229 27873ft 358kts
10-May-18 20:34 34.505069 -116.366364 229 27887ft 358kts
10-May-18 20:35 34.436056 -116.453116 231 27903ft 357kts
10-May-18 20:36 34.385024 -116.554591 246 27941ft 352kts
10-May-18 20:37 34.340382 -116.662681 245 24767ft 387kts
10-May-18 20:38 34.293819 -116.778475 245 22754ft 374kts
10-May-18 20:39 34.248709 -116.890156 245 20735ft 364kts
10-May-18 20:40 34.206195 -116.999209 251 18771ft 354kts
10-May-18 20:41 34.176971 -117.109151 253 17624ft 325kts
10-May-18 20:42 34.150412 -117.206856 252 17039ft 293kts
10-May-18 20:43 34.124900 -117.299361 252 15748ft 290kts
10-May-18 20:44 34.099591 -117.391159 254 14499ft 285kts
10-May-18 20:45 34.077217 -117.482252 254 13259ft 282kts
10-May-18 20:46 34.061480 -117.572736 261 12402ft 259kts
10-May-18 20:47 34.050209 -117.651846 261 11719ft 228kts
10-May-18 20:48 34.039169 -117.727161 261 10337ft 226kts
10-May-18 20:49 34.028475 -117.801803 261 8929ft 226kts
10-May-18 20:50 34.017549 -117.875523 260 7624ft 221kts
10-May-18 20:51 34.006618 -117.948148 260 6117ft 224kts
10-May-18 20:52 33.994900 -118.025458 259 4212ft 233kts
10-May-18 20:53 33.983336 -118.101504 258 2574ft 228kts
10-May-18 20:54 33.975086 -118.174510 262 1978ft 223kts
10-May-18 20:55 33.967909 -118.246388 262 1934ft 186kts
10-May-18 20:56 33.962493 -118.300460 262 1790ft 155kts
10-May-18 20:57 33.957338 -118.350859 264 979ft 147kts
10-May-18 20:58 33.952356 -118.398844 264 222ft 138kts
10-May-18 20:59 33.948984 -118.426335 241 134ft 29kts
10-May-18 21:00 33.947061 -118.427909 187 134ft 11kts
10-May-18 21:01 33.946609 -118.424874 80 134ft 19kts
10-May-18 21:02 33.947146 -118.419541 83 134ft 12kts
10-May-18 21:03 33.947648 -118.414714 76 134ft 16kts
10-May-18 21:04 33.948263 -118.409946 82 134ft 14kts
10-May-18 21:05 33.948709 -118.405697 82 134ft 10kts
10-May-18 21:06 33.948935 -118.401277 130 134ft 12kts
10-May-18 21:07 33.947973 -118.400185 180 134ft 1kts
10-May-18 21:08 33.947697 -118.400222 216 134ft 1kts
10-May-18 21:09 33.947495 -118.400794 246 134ft 0kts
10-May-18 21:10 33.947495 -118.400794 246 134ft 0kts
10-May-18 21:11 33.947495 -118.400794 246 134ft 0kts
10-May-18 21:12 33.947495 -118.400794 246 134ft 0kts
10-May-18 21:13 33.947495 -118.400794 246 134ft 0kts

Navigation Log

Ident Type
Flight plan parsing failed, navigation log unavailable